Aérodrome :
LOGIN :

S'inscrire | Disclaimer

   EN    FR    IT 

 










Légende :    VFR   VFR Marginal   IFR   IFR Intensif   IFR Très Intensif
Visi : 
Plafond : 
>= 8 km
>= 3000ft
5 à 8 km
1000 à 3000 ft
1500m à 5 km
500 à 1000 ft
800 à 1500m
200 à 500 ft
< 800m
< 200 ft
Symboles :   Orages  Brouillard  Fortes neiges  Fortes précipitations  Vent > 20 kt
SIGMETs :   Divers  Orages  Givrage  Turbulence  Onde Orograph.  Cendres Volcan.






- Altitude de l'aérodrome : 256 ft
- Code IATA : CFR


LFRK - Caen

DERNIER METAR :
  • 271130Z AUTO 07005KT 7000 FEW044 BKN052 BKN064 09/07 Q1016 NOSIG

METARs EXPIRÉS :
  • 271100Z AUTO 09005KT 7000 SCT046 SCT052 OVC068 09/07 Q1016 TEMPO BKN005
  • 271030Z AUTO 07004KT 7000 SCT049 BKN072 BKN094 09/07 Q1017 TEMPO BKN005
  • 271000Z AUTO 09006KT 6000 NSC 08/07 Q1017 TEMPO BKN005
  • 270930Z AUTO 10005KT 7000 NSC 09/07 Q1017 TEMPO BKN005
  • 270900Z AUTO 09004KT 6000 NSC 08/07 Q1017 TEMPO BKN005

TAF TAF LFRK
Valide du 27 à 09h jusqu'au 27 à 18h UTC


270800Z 2709/2718 VRB05KT 4000 BR OVC040
BECMG 2709/2711 9999 NSW
PROB40
TEMPO 2709/2712 BKN005
Météo : +33 2 31 26 68 11



MET'MAP, la Météo Aéronautique d'un coup d'oeil ! - Copyright ORBIFLY Décembre 2007 - Disclaimer

ORBIFLY MET'MAP TEAM :

Programmation & Développement : Alexandra Zaïnal
Sur une idée originale de : Baudouin d'Aumeries
Assistance à la programmation : Marc-Olivier Méhu
Soutien technique & logistique : Manuel Goepfert

Contact : metmap@orbifly.com




SOURCES & CREDITS :

   NOAA